createdAt,value
2015-12-28T00:00:00.893Z,30.26
2015-12-28T00:00:13.270Z,30.16
2015-12-28T00:00:25.629Z,30.26
2015-12-28T00:00:37.989Z,30.07
2015-12-28T00:00:50.348Z,30.16
2015-12-28T00:01:02.707Z,30.35
2015-12-28T00:01:14.934Z,30.35
2015-12-28T00:01:27.184Z,30.16
2015-12-28T00:01:39.621Z,30.35
2015-12-28T00:01:52.011Z,30.54
2015-12-28T00:02:04.433Z,30.07
2015-12-28T00:02:16.811Z,30.16
2015-12-28T00:02:29.202Z,30.26
2015-12-28T00:02:41.592Z,30.26
2015-12-28T00:02:53.983Z,29.88
2015-12-28T00:03:06.389Z,30.16
2015-12-28T00:03:18.876Z,30.35
2015-12-28T00:03:31.219Z,30.35
2015-12-28T00:03:43.579Z,30.26
2015-12-28T00:03:55.938Z,30.16
2015-12-28T00:04:08.282Z,30.07
2015-12-28T00:04:20.644Z,30.35
2015-12-28T00:04:33.004Z,30.26
2015-12-28T00:04:45.363Z,30.16
2015-12-28T00:04:57.707Z,29.79
2015-12-28T00:05:10.082Z,29.88
2015-12-28T00:05:22.444Z,29.79
2015-12-28T00:05:34.788Z,30.07
2015-12-28T00:05:47.132Z,29.97
2015-12-28T00:05:59.507Z,29.6
2015-12-28T00:06:11.913Z,29.6
2015-12-28T00:06:24.291Z,29.6
2015-12-28T00:06:36.650Z,29.6
2015-12-28T00:06:49.025Z,29.6
2015-12-28T00:07:01.416Z,29.5
2015-12-28T00:07:13.650Z,29.5
2015-12-28T00:07:26.044Z,29.5
2015-12-28T00:07:38.434Z,29.6
2015-12-28T00:07:50.809Z,29.69
2015-12-28T00:08:03.200Z,29.69
2015-12-28T00:08:15.559Z,29.5
2015-12-28T00:08:27.921Z,29.5
2015-12-28T00:08:40.265Z,29.6
2015-12-28T00:08:52.624Z,29.41
2015-12-28T00:09:04.999Z,29.41
2015-12-28T00:09:17.358Z,29.5
2015-12-28T00:09:29.721Z,29.41
2015-12-28T00:09:42.080Z,29.22
2015-12-28T00:09:54.439Z,29.22
2015-12-28T00:10:06.783Z,29.31
2015-12-28T00:10:19.143Z,29.31
2015-12-28T00:10:31.505Z,29.22
2015-12-28T00:10:43.864Z,29.22
2015-12-28T00:10:55.521Z,29.5
2015-12-28T00:11:07.896Z,29.31
2015-12-28T00:11:20.271Z,29.31
2015-12-28T00:11:32.648Z,29.12
2015-12-28T00:11:45.023Z,29.31
2015-12-28T00:11:57.413Z,29.03
2015-12-28T00:12:09.804Z,29.31
2015-12-28T00:12:22.194Z,29.22
2015-12-28T00:12:34.589Z,29.12
2015-12-28T00:12:46.964Z,29.22
2015-12-28T00:12:59.370Z,29.22
2015-12-28T00:13:11.730Z,29.22
2015-12-28T00:13:24.073Z,29.22
2015-12-28T00:13:36.435Z,29.31
2015-12-28T00:13:48.810Z,29.31
2015-12-28T00:14:01.169Z,29.22
2015-12-28T00:14:13.529Z,29.31
2015-12-28T00:14:25.888Z,29.12
2015-12-28T00:14:38.235Z,29.12
2015-12-28T00:14:49.891Z,29.12
2015-12-28T00:15:02.235Z,29.12
2015-12-28T00:15:14.594Z,29.5
2015-12-28T00:15:26.938Z,29.22
2015-12-28T00:15:39.300Z,29.31
2015-12-28T00:15:51.660Z,29.41
2015-12-28T00:16:04.019Z,29.31
2015-12-28T00:16:16.394Z,29.31
2015-12-28T00:16:28.769Z,29.22
2015-12-28T00:16:41.146Z,29.31
2015-12-28T00:16:53.521Z,29.41
2015-12-28T00:17:05.912Z,29.6
2015-12-28T00:17:18.302Z,29.5
2015-12-28T00:17:30.677Z,29.79
2015-12-28T00:17:43.024Z,29.69
2015-12-28T00:17:55.383Z,29.6
2015-12-28T00:18:07.727Z,29.5
2015-12-28T00:18:20.071Z,29.5
2015-12-28T00:18:32.430Z,29.69
2015-12-28T00:18:44.776Z,29.5
2015-12-28T00:18:57.120Z,29.69
2015-12-28T00:19:09.479Z,29.6
2015-12-28T00:19:21.838Z,29.79
2015-12-28T00:19:34.198Z,29.79
2015-12-28T00:19:46.561Z,29.69
2015-12-28T00:19:58.921Z,29.5
2015-12-28T00:20:11.296Z,29.69
2015-12-28T00:20:23.655Z,29.6
2015-12-28T00:20:36.030Z,29.6
2015-12-28T00:20:48.391Z,29.6
2015-12-28T00:21:00.751Z,29.6
2015-12-28T00:21:13.141Z,29.79
2015-12-28T00:21:25.532Z,29.79
2015-12-28T00:21:37.907Z,29.79
2015-12-28T00:21:50.254Z,29.6
2015-12-28T00:22:02.613Z,29.69
2015-12-28T00:22:14.957Z,29.69
2015-12-28T00:22:27.316Z,29.69
2015-12-28T00:22:39.676Z,29.6
2015-12-28T00:22:52.037Z,29.6
2015-12-28T00:23:04.381Z,29.22
2015-12-28T00:23:16.740Z,29.31
2015-12-28T00:23:29.099Z,29.22
2015-12-28T00:23:41.443Z,29.5
2015-12-28T00:23:53.806Z,29.5
2015-12-28T00:24:06.165Z,29.31
2015-12-28T00:24:18.524Z,29.31
2015-12-28T00:24:30.899Z,29.41
2015-12-28T00:24:43.259Z,29.12
2015-12-28T00:24:55.637Z,29.31
2015-12-28T00:25:08.012Z,29.22
2015-12-28T00:25:20.402Z,29.03
2015-12-28T00:25:32.793Z,29.12
2015-12-28T00:25:45.168Z,29.31
2015-12-28T00:25:57.577Z,29.31
2015-12-28T00:26:09.983Z,29.22
2015-12-28T00:26:22.374Z,29.12
2015-12-28T00:26:34.733Z,29.41
2015-12-28T00:26:47.077Z,29.12
2015-12-28T00:26:59.439Z,29.22
2015-12-28T00:27:11.079Z,29.12
2015-12-28T00:27:23.470Z,29.31
2015-12-28T00:27:35.814Z,29.22
2015-12-28T00:27:47.454Z,29.22
2015-12-28T00:27:59.817Z,29.31
2015-12-28T00:28:11.473Z,29.31
2015-12-28T00:28:23.863Z,29.12
2015-12-28T00:28:36.254Z,29.12
2015-12-28T00:28:48.629Z,29.12
2015-12-28T00:29:01.007Z,28.93
2015-12-28T00:29:13.351Z,29.03
2015-12-28T00:29:25.710Z,28.93
2015-12-28T00:29:38.257Z,28.84
2015-12-28T00:29:50.604Z,28.93
2015-12-28T00:30:02.244Z,28.93
2015-12-28T00:30:14.619Z,28.93
2015-12-28T00:30:26.979Z,28.65
2015-12-28T00:30:39.323Z,28.65
2015-12-28T00:30:51.685Z,28.65
2015-12-28T00:31:04.044Z,28.55
2015-12-28T00:31:16.404Z,28.84
2015-12-28T00:31:28.779Z,28.93
2015-12-28T00:31:41.154Z,28.84
2015-12-28T00:31:53.516Z,28.74
2015-12-28T00:32:05.922Z,28.46
2015-12-28T00:32:18.313Z,28.55
2015-12-28T00:32:30.704Z,28.55
2015-12-28T00:32:43.094Z,28.55
2015-12-28T00:32:55.502Z,28.55
2015-12-28T00:33:07.877Z,28.36
2015-12-28T00:33:20.284Z,28.36
2015-12-28T00:33:32.643Z,28.36
2015-12-28T00:33:44.987Z,28.27
2015-12-28T00:33:57.348Z,28.46
2015-12-28T00:34:09.708Z,28.46
2015-12-28T00:34:22.067Z,28.46
2015-12-28T00:34:34.411Z,28.46
2015-12-28T00:34:46.770Z,28.27
2015-12-28T00:34:59.117Z,27.89
2015-12-28T00:35:11.492Z,28.46
2015-12-28T00:35:23.851Z,28.08
2015-12-28T00:35:36.211Z,28.08
2015-12-28T00:35:48.570Z,28.27
2015-12-28T00:36:00.932Z,28.08
2015-12-28T00:36:13.292Z,27.98
2015-12-28T00:36:25.667Z,27.89
2015-12-28T00:36:38.042Z,28.17
2015-12-28T00:36:50.417Z,28.08
2015-12-28T00:37:02.795Z,27.8
2015-12-28T00:37:15.185Z,27.89
2015-12-28T00:37:27.560Z,27.89
2015-12-28T00:37:39.951Z,28.08
2015-12-28T00:37:52.326Z,27.89
2015-12-28T00:38:04.704Z,27.8
2015-12-28T00:38:17.095Z,27.7
2015-12-28T00:38:29.485Z,27.42
2015-12-28T00:38:42.157Z,27.51
2015-12-28T00:38:54.548Z,27.33
2015-12-28T00:39:06.910Z,27.42
2015-12-28T00:39:19.269Z,27.51
2015-12-28T00:39:31.644Z,27.61
2015-12-28T00:39:44.019Z,27.42
2015-12-28T00:39:56.410Z,27.51
2015-12-28T00:40:08.804Z,27.04
2015-12-28T00:40:21.179Z,27.14
2015-12-28T00:40:33.538Z,27.14
2015-12-28T00:40:45.913Z,27.14
2015-12-28T00:40:58.272Z,26.77
2015-12-28T00:41:10.649Z,26.85
2015-12-28T00:41:22.321Z,27.06
2015-12-28T00:41:34.712Z,26.96
2015-12-28T00:41:47.103Z,27.51
2015-12-28T00:41:59.493Z,27.44
2015-12-28T00:42:11.887Z,26.85
2015-12-28T00:42:24.293Z,27.15
2015-12-28T00:42:36.652Z,27.06
2015-12-28T00:42:48.996Z,27.06
2015-12-28T00:43:01.356Z,27.04
2015-12-28T00:43:13.717Z,26.87
2015-12-28T00:43:26.076Z,26.85
2015-12-28T00:43:38.436Z,27.04
2015-12-28T00:43:50.795Z,27.25
2015-12-28T00:44:02.436Z,27.25
2015-12-28T00:44:14.798Z,27.23
2015-12-28T00:44:27.157Z,27.15
2015-12-28T00:44:38.798Z,27.15
2015-12-28T00:44:51.157Z,26.95
2015-12-28T00:45:03.517Z,27.14
2015-12-28T00:45:15.895Z,27.06
2015-12-28T00:45:28.270Z,27.33
2015-12-28T00:45:40.645Z,27.04
2015-12-28T00:45:53.020Z,27.14
2015-12-28T00:46:05.410Z,27.23
2015-12-28T00:46:17.803Z,27.04
2015-12-28T00:46:30.194Z,27.04
2015-12-28T00:46:42.616Z,27.51
2015-12-28T00:46:55.006Z,27.33
2015-12-28T00:47:07.381Z,27.42
2015-12-28T00:47:19.775Z,26.95
2015-12-28T00:47:32.134Z,27.04
2015-12-28T00:47:44.494Z,27.04
2015-12-28T00:47:56.853Z,27.04
2015-12-28T00:48:09.197Z,26.95
2015-12-28T00:48:21.576Z,26.95
2015-12-28T00:48:33.935Z,27.14
2015-12-28T00:48:46.294Z,26.85
2015-12-28T00:48:58.654Z,26.95
2015-12-28T00:49:11.013Z,26.95
2015-12-28T00:49:23.390Z,26.85
2015-12-28T00:49:35.765Z,26.95
2015-12-28T00:49:48.109Z,26.95
2015-12-28T00:50:00.484Z,27.04
2015-12-28T00:50:12.859Z,26.85
2015-12-28T00:50:25.237Z,26.95
2015-12-28T00:50:37.596Z,26.57
2015-12-28T00:50:49.956Z,26.76
2015-12-28T00:51:02.190Z,26.76
2015-12-28T00:51:14.581Z,26.95
2015-12-28T00:51:26.990Z,26.76
2015-12-28T00:51:39.365Z,26.66
2015-12-28T00:51:51.756Z,26.28
2015-12-28T00:52:04.146Z,26.66
2015-12-28T00:52:16.521Z,26.57
2015-12-28T00:52:28.867Z,26.28
2015-12-28T00:52:41.226Z,26.28
2015-12-28T00:52:53.586Z,26.38
2015-12-28T00:53:05.226Z,26.57
2015-12-28T00:53:17.586Z,26.28
2015-12-28T00:53:29.948Z,26.19
2015-12-28T00:53:42.307Z,26.19
2015-12-28T00:53:54.667Z,25.71
2015-12-28T00:54:07.026Z,26.09
2015-12-28T00:54:18.667Z,26
2015-12-28T00:54:31.029Z,26
2015-12-28T00:54:43.404Z,25.71
2015-12-28T00:54:55.764Z,25.71
2015-12-28T00:55:08.139Z,25.62
2015-12-28T00:55:20.498Z,25.81
2015-12-28T00:55:32.876Z,25.9
2015-12-28T00:55:44.548Z,25.71
2015-12-28T00:55:56.938Z,25.52
2015-12-28T00:56:09.173Z,25.43
2015-12-28T00:56:21.548Z,25.52
2015-12-28T00:56:33.895Z,25.43
2015-12-28T00:56:46.238Z,25.54
2015-12-28T00:56:58.582Z,25.43
2015-12-28T00:57:10.941Z,25.71
2015-12-28T00:57:23.301Z,25.71
2015-12-28T00:57:35.662Z,25.63
2015-12-28T00:57:48.006Z,25.15
2015-12-28T00:58:00.350Z,25.45
2015-12-28T00:58:12.725Z,25.35
2015-12-28T00:58:25.084Z,25.24
2015-12-28T00:58:37.430Z,25.26
2015-12-28T00:58:49.789Z,25.26
2015-12-28T00:59:02.164Z,25.15
2015-12-28T00:59:14.539Z,25.16
2015-12-28T00:59:26.899Z,25.07
2015-12-28T00:59:39.120Z,25.16
2015-12-28T00:59:51.527Z,24.79
2015-12-28T01:00:03.917Z,24.6
2015-12-28T01:00:16.292Z,24.88
2015-12-28T01:00:28.698Z,24.79
2015-12-28T01:00:41.092Z,24.79
2015-12-28T01:00:53.483Z,25.07
2015-12-28T01:01:05.717Z,24.88
2015-12-28T01:01:18.108Z,24.22
2015-12-28T01:01:29.748Z,24.41
2015-12-28T01:01:42.111Z,24.6
2015-12-28T01:01:54.454Z,24.6
2015-12-28T01:02:06.814Z,24.6
2015-12-28T01:02:19.189Z,24.41
2015-12-28T01:02:31.548Z,24.12
2015-12-28T01:02:43.911Z,24.22
2015-12-28T01:02:56.270Z,24.31
2015-12-28T01:03:08.629Z,24.22
2015-12-28T01:03:20.989Z,24.22
2015-12-28T01:03:33.332Z,24.31
2015-12-28T01:03:45.694Z,23.93
2015-12-28T01:03:58.069Z,24.12
2015-12-28T01:04:09.725Z,24.22
2015-12-28T01:04:22.100Z,23.93
2015-12-28T01:04:34.475Z,23.93
2015-12-28T01:04:46.853Z,23.84
2015-12-28T01:04:59.228Z,23.93
2015-12-28T01:05:11.634Z,23.93
2015-12-28T01:05:24.009Z,23.74
2015-12-28T01:05:36.400Z,23.93
2015-12-28T01:05:48.778Z,23.93
2015-12-28T01:06:01.122Z,24.03
2015-12-28T01:06:13.731Z,24.03
2015-12-28T01:06:26.090Z,24.12
2015-12-28T01:06:38.436Z,24.12
2015-12-28T01:06:50.796Z,23.93
2015-12-28T01:07:03.155Z,23.93
2015-12-28T01:07:15.499Z,23.84
2015-12-28T01:07:27.858Z,23.55
2015-12-28T01:07:40.220Z,23.93
2015-12-28T01:07:52.580Z,24.03
2015-12-28T01:08:04.939Z,24.22
2015-12-28T01:08:17.299Z,24.12
2015-12-28T01:08:29.658Z,23.93
2015-12-28T01:08:42.052Z,24.12
2015-12-28T01:08:54.411Z,24.12
2015-12-28T01:09:06.786Z,24.12
2015-12-28T01:09:19.145Z,24.12
2015-12-28T01:09:31.552Z,24.03
2015-12-28T01:09:43.944Z,24.12
2015-12-28T01:09:56.335Z,24.03
2015-12-28T01:10:08.007Z,24.12
2015-12-28T01:10:20.397Z,24.12
2015-12-28T01:10:32.772Z,24.12
2015-12-28T01:10:45.167Z,23.93
2015-12-28T01:10:57.511Z,24.03
2015-12-28T01:11:09.854Z,24.03
2015-12-28T01:11:22.214Z,24.03
2015-12-28T01:11:34.573Z,24.03
2015-12-28T01:11:46.950Z,24.03
2015-12-28T01:11:59.310Z,23.84
2015-12-28T01:12:11.669Z,23.84
2015-12-28T01:12:24.028Z,23.93
2015-12-28T01:12:36.403Z,23.84
2015-12-28T01:12:48.750Z,23.93
2015-12-28T01:13:01.109Z,23.93
2015-12-28T01:13:13.469Z,23.93
2015-12-28T01:13:25.828Z,23.84
2015-12-28T01:13:38.203Z,23.84
2015-12-28T01:13:50.597Z,23.84
2015-12-28T01:14:02.972Z,23.93
2015-12-28T01:14:15.331Z,23.93
2015-12-28T01:14:27.019Z,23.93
2015-12-28T01:14:39.409Z,23.84
2015-12-28T01:14:51.786Z,23.84
2015-12-28T01:15:04.177Z,24.03
2015-12-28T01:15:16.583Z,24.22
2015-12-28T01:15:28.974Z,24.03
2015-12-28T01:15:41.349Z,24.12
2015-12-28T01:15:53.711Z,24.03
2015-12-28T01:16:06.071Z,24.03
2015-12-28T01:16:18.446Z,24.22
2015-12-28T01:16:30.789Z,24.03
2015-12-28T01:16:43.149Z,24.12
2015-12-28T01:16:55.512Z,24.22
2015-12-28T01:17:07.153Z,24.22
2015-12-28T01:17:19.496Z,24.22
2015-12-28T01:17:31.871Z,24.41
2015-12-28T01:17:44.231Z,24.31
2015-12-28T01:17:56.592Z,24.5
2015-12-28T01:18:08.952Z,24.5
2015-12-28T01:18:21.311Z,24.6
2015-12-28T01:18:33.670Z,24.69
2015-12-28T01:18:46.045Z,24.5
2015-12-28T01:18:58.422Z,24.69
2015-12-28T01:19:10.782Z,24.6
2015-12-28T01:19:22.454Z,24.6
2015-12-28T01:19:34.844Z,24.69
2015-12-28T01:19:46.516Z,24.69
2015-12-28T01:19:58.895Z,24.5
2015-12-28T01:20:11.286Z,24.5
2015-12-28T01:20:23.676Z,24.69
2015-12-28T01:20:36.067Z,24.6
2015-12-28T01:20:48.411Z,24.6
2015-12-28T01:21:00.757Z,24.5
2015-12-28T01:21:13.117Z,24.5
2015-12-28T01:21:25.476Z,24.79
2015-12-28T01:21:37.836Z,24.69
2015-12-28T01:22:11.494Z,24.5
2015-12-28T01:22:27.072Z,24.5
2015-12-28T01:22:42.259Z,24.5
2015-12-28T01:22:54.619Z,24.41
2015-12-28T01:23:06.978Z,24.69
2015-12-28T01:23:19.356Z,24.6
2015-12-28T01:23:31.559Z,24.22
2015-12-28T01:23:43.934Z,24.12
2015-12-28T01:23:56.294Z,24.41
2015-12-28T01:24:08.669Z,24.41
2015-12-28T01:24:21.125Z,24.22
2015-12-28T01:24:33.515Z,24.31
2015-12-28T01:24:45.906Z,24.31
2015-12-28T01:24:58.297Z,24.22
2015-12-28T01:25:10.687Z,23.93
2015-12-28T01:25:23.065Z,24.12
2015-12-28T01:25:35.472Z,24.12
2015-12-28T01:25:47.831Z,24.12
2015-12-28T01:26:00.175Z,24.12
2015-12-28T01:26:12.518Z,24.12
2015-12-28T01:26:24.895Z,24.03
2015-12-28T01:26:37.255Z,24.03
2015-12-28T01:26:49.599Z,24.12
2015-12-28T01:27:01.958Z,23.84
2015-12-28T01:27:14.302Z,24.03
2015-12-28T01:27:26.664Z,23.93
2015-12-28T01:27:39.023Z,23.74
2015-12-28T01:27:51.383Z,23.93
2015-12-28T01:28:03.742Z,23.84
2015-12-28T01:28:16.102Z,24.12
2015-12-28T01:28:28.480Z,24.31
2015-12-28T01:28:40.823Z,24.03
2015-12-28T01:28:53.198Z,24.03
2015-12-28T01:29:05.558Z,24.22
2015-12-28T01:29:17.933Z,24.22
2015-12-28T01:29:30.154Z,24.12
2015-12-28T01:29:42.529Z,24.03
2015-12-28T01:29:54.920Z,23.93
2015-12-28T01:30:07.326Z,23.84
2015-12-28T01:30:19.717Z,23.93
2015-12-28T01:30:32.142Z,23.84
2015-12-28T01:30:44.501Z,23.84
2015-12-28T01:30:56.845Z,23.84
2015-12-28T01:31:09.204Z,23.84
2015-12-28T01:31:21.564Z,23.84
2015-12-28T01:31:33.909Z,23.84
2015-12-28T01:31:45.550Z,23.93
2015-12-28T01:31:57.925Z,23.93
2015-12-28T01:32:10.269Z,23.93
2015-12-28T01:32:22.644Z,23.93
2015-12-28T01:32:35.022Z,23.93
2015-12-28T01:32:47.381Z,23.84
2015-12-28T01:32:59.741Z,23.84
2015-12-28T01:33:12.100Z,23.84
2015-12-28T01:33:24.475Z,24.12
2015-12-28T01:33:36.837Z,24.03
2015-12-28T01:33:49.212Z,24.03
2015-12-28T01:34:01.587Z,24.03
2015-12-28T01:34:13.978Z,24.12
2015-12-28T01:34:26.369Z,24.12
2015-12-28T01:34:38.761Z,24.12
2015-12-28T01:34:51.152Z,23.93
2015-12-28T01:35:03.542Z,24.12
2015-12-28T01:35:15.949Z,23.93
2015-12-28T01:35:28.324Z,23.93
2015-12-28T01:35:40.671Z,23.74
2015-12-28T01:35:53.031Z,23.36
2015-12-28T01:36:05.390Z,23.55
2015-12-28T01:36:17.750Z,23.65
2015-12-28T01:36:30.109Z,23.27
2015-12-28T01:36:42.314Z,23.74
2015-12-28T01:36:54.658Z,23.93
2015-12-28T01:37:07.017Z,23.93
2015-12-28T01:37:19.392Z,24.03
2015-12-28T01:37:31.752Z,24.12
2015-12-28T01:37:43.395Z,24.03
2015-12-28T01:37:55.755Z,24.12
2015-12-28T01:38:08.114Z,24.12
2015-12-28T01:38:20.489Z,24.12
2015-12-28T01:38:32.848Z,23.93
2015-12-28T01:38:45.226Z,24.12
2015-12-28T01:38:57.586Z,23.84
2015-12-28T01:39:09.976Z,24.12
2015-12-28T01:39:21.664Z,24.12
2015-12-28T01:39:34.054Z,24.12
2015-12-28T01:39:46.464Z,24.12
2015-12-28T01:39:58.901Z,24.12
2015-12-28T01:40:11.292Z,23.93
2015-12-28T01:40:23.682Z,23.84
2015-12-28T01:40:36.074Z,24.03
2015-12-28T01:40:48.433Z,24.12
2015-12-28T01:41:00.793Z,24.22
2015-12-28T01:41:13.137Z,24.03
2015-12-28T01:41:25.496Z,24.12
2015-12-28T01:41:37.874Z,24.12
2015-12-28T01:41:50.218Z,24.12
2015-12-28T01:42:02.577Z,24.03
2015-12-28T01:42:14.921Z,24.22
2015-12-28T01:42:27.296Z,23.93
2015-12-28T01:42:39.658Z,23.93
2015-12-28T01:42:52.018Z,23.84
2015-12-28T01:43:04.377Z,23.93
2015-12-28T01:43:16.736Z,23.93
2015-12-28T01:43:29.111Z,23.93
2015-12-28T01:43:41.489Z,24.12
2015-12-28T01:43:53.864Z,24.22
2015-12-28T01:44:06.239Z,24.03
2015-12-28T01:44:18.630Z,24.12
2015-12-28T01:44:31.005Z,24.12
2015-12-28T01:44:43.383Z,24.12
2015-12-28T01:44:55.789Z,24.12
2015-12-28T01:45:08.180Z,24.12
2015-12-28T01:45:20.602Z,24.12
2015-12-28T01:45:32.992Z,24.12
2015-12-28T01:45:45.355Z,24.12
2015-12-28T01:45:56.995Z,24.12
2015-12-28T01:46:09.339Z,24.12
2015-12-28T01:46:21.730Z,24.03
2015-12-28T01:46:33.386Z,23.74
2015-12-28T01:46:45.747Z,23.84
2015-12-28T01:46:58.107Z,23.84
2015-12-28T01:47:10.497Z,24.03
2015-12-28T01:47:22.857Z,23.84
2015-12-28T01:47:35.216Z,23.93
2015-12-28T01:47:47.578Z,24.03
2015-12-28T01:47:59.938Z,23.93
2015-12-28T01:48:12.313Z,24.03
2015-12-28T01:48:24.688Z,24.22
2015-12-28T01:48:37.063Z,24.31
2015-12-28T01:48:49.440Z,24.03
2015-12-28T01:49:01.815Z,24.03
2015-12-28T01:49:14.205Z,24.03
2015-12-28T01:49:26.596Z,24.03
2015-12-28T01:49:38.971Z,24.03
2015-12-28T01:49:51.380Z,24.03
2015-12-28T01:50:03.771Z,24.12
2015-12-28T01:50:16.162Z,24.12
2015-12-28T01:50:28.537Z,24.22
2015-12-28T01:50:40.880Z,24.5
2015-12-28T01:50:53.243Z,24.22
2015-12-28T01:51:05.586Z,24.12
2015-12-28T01:51:17.961Z,24.12
2015-12-28T01:51:30.321Z,24.03
2015-12-28T01:51:42.680Z,24.12
2015-12-28T01:51:55.027Z,24.12
2015-12-28T01:52:07.402Z,24.12
2015-12-28T01:52:19.761Z,24.12
2015-12-28T01:52:32.105Z,24.03
2015-12-28T01:52:44.464Z,24.12
2015-12-28T01:52:56.827Z,24.03
2015-12-28T01:53:09.202Z,24.12
2015-12-28T01:53:21.577Z,24.03
2015-12-28T01:53:33.952Z,23.93
2015-12-28T01:53:46.327Z,24.03
2015-12-28T01:53:58.719Z,23.93
2015-12-28T01:54:11.110Z,24.12
2015-12-28T01:54:23.501Z,24.03
2015-12-28T01:54:35.876Z,24.22
2015-12-28T01:54:48.282Z,24.12
2015-12-28T01:55:00.660Z,24.12
2015-12-28T01:55:13.035Z,24.22
2015-12-28T01:55:25.441Z,24.31
2015-12-28T01:55:37.801Z,24.22
2015-12-28T01:55:50.207Z,24.31
2015-12-28T01:56:02.554Z,24.41
2015-12-28T01:56:14.913Z,24.12
2015-12-28T01:56:27.272Z,24.12
2015-12-28T01:56:39.632Z,24.5
2015-12-28T01:56:51.991Z,24.31
2015-12-28T01:57:04.338Z,24.22
2015-12-28T01:57:16.713Z,24.22
2015-12-28T01:57:29.072Z,24.22
2015-12-28T01:57:41.416Z,24.31
2015-12-28T01:57:53.775Z,24.31
2015-12-28T01:58:06.153Z,24.31
2015-12-28T01:58:18.513Z,24.22
2015-12-28T01:58:30.888Z,24.03
2015-12-28T01:58:43.263Z,24.22
2015-12-28T01:58:55.622Z,24.41
2015-12-28T01:59:08.031Z,24.22
2015-12-28T01:59:20.422Z,24.41
2015-12-28T01:59:32.797Z,24.41
2015-12-28T01:59:45.188Z,24.31
2015-12-28T01:59:57.594Z,24.22
2015-12-28T02:00:09.986Z,24.12
2015-12-28T02:00:22.393Z,24.03
2015-12-28T02:00:34.752Z,24.03
2015-12-28T02:00:47.096Z,24.03
2015-12-28T02:00:59.440Z,24.22
2015-12-28T02:01:11.646Z,24.03
2015-12-28T02:01:23.989Z,23.93
2015-12-28T02:01:36.349Z,23.93
2015-12-28T02:01:48.677Z,23.84
2015-12-28T02:02:01.052Z,23.93
2015-12-28T02:02:13.399Z,23.93
2015-12-28T02:02:25.758Z,24.03
2015-12-28T02:02:38.133Z,24.03
2015-12-28T02:02:50.477Z,23.74
2015-12-28T02:03:02.836Z,24.22
2015-12-28T02:03:15.213Z,24.12
2015-12-28T02:03:27.604Z,24.22
2015-12-28T02:03:39.963Z,24.22
2015-12-28T02:03:52.354Z,24.22
2015-12-28T02:04:04.744Z,24.22
2015-12-28T02:04:17.154Z,24.12
2015-12-28T02:04:29.544Z,24.22
2015-12-28T02:04:41.935Z,24.03
2015-12-28T02:04:54.326Z,24.03
2015-12-28T02:05:06.716Z,24.03
2015-12-28T02:05:19.110Z,24.22
2015-12-28T02:05:31.469Z,24.22
2015-12-28T02:05:43.813Z,24.5
2015-12-28T02:05:56.172Z,24.31
2015-12-28T02:06:08.532Z,24.31
2015-12-28T02:06:20.894Z,24.31
2015-12-28T02:06:33.253Z,24.22
2015-12-28T02:06:45.644Z,24.22
2015-12-28T02:06:58.003Z,24.22
2015-12-28T02:07:10.363Z,24.22
2015-12-28T02:07:22.724Z,24.31
2015-12-28T02:07:35.084Z,24.22
2015-12-28T02:07:47.443Z,24.22
2015-12-28T02:07:59.802Z,24.22
2015-12-28T02:08:12.177Z,24.22
2015-12-28T02:08:24.555Z,24.22
2015-12-28T02:08:36.915Z,24.22
2015-12-28T02:08:49.274Z,24.22
2015-12-28T02:09:01.665Z,24.31
2015-12-28T02:09:14.055Z,24.41
2015-12-28T02:09:26.293Z,24.6
2015-12-28T02:09:38.699Z,24.6
2015-12-28T02:09:51.058Z,24.6
2015-12-28T02:10:03.418Z,24.5
2015-12-28T02:10:15.761Z,24.6
2015-12-28T02:10:28.124Z,24.03
2015-12-28T02:10:39.780Z,24.12
2015-12-28T02:10:52.124Z,24.41
2015-12-28T02:11:04.483Z,24.22
2015-12-28T02:11:16.686Z,24.31
2015-12-28T02:11:29.049Z,24.31
2015-12-28T02:11:41.424Z,24.22
2015-12-28T02:11:53.783Z,24.41
2015-12-28T02:12:06.158Z,24.22
2015-12-28T02:12:18.517Z,24.5
2015-12-28T02:12:30.911Z,24.5
2015-12-28T02:12:43.286Z,24.5
2015-12-28T02:12:55.677Z,24.22
2015-12-28T02:13:08.067Z,24.41
2015-12-28T02:13:20.474Z,24.31
2015-12-28T02:13:32.866Z,24.41
2015-12-28T02:13:45.210Z,24.6
2015-12-28T02:13:57.601Z,24.5
2015-12-28T02:14:09.976Z,24.6
2015-12-28T02:14:22.335Z,24.69
2015-12-28T02:14:34.682Z,24.6
2015-12-28T02:14:47.041Z,24.69
2015-12-28T02:14:59.400Z,24.69
2015-12-28T02:15:11.760Z,24.6
2015-12-28T02:15:24.119Z,24.5
2015-12-28T02:15:36.482Z,24.69
2015-12-28T02:15:48.841Z,24.5
2015-12-28T02:16:01.185Z,24.5
2015-12-28T02:16:13.544Z,24.5
2015-12-28T02:16:25.919Z,24.6
2015-12-28T02:16:38.296Z,24.6
2015-12-28T02:16:50.671Z,24.69
2015-12-28T02:17:03.062Z,24.69
2015-12-28T02:17:15.452Z,24.6
2015-12-28T02:17:27.827Z,24.5
2015-12-28T02:17:40.221Z,24.5
2015-12-28T02:17:52.612Z,24.5
2015-12-28T02:18:04.987Z,24.5
2015-12-28T02:18:16.658Z,24.6
2015-12-28T02:18:28.346Z,24.6
2015-12-28T02:18:40.693Z,24.6
2015-12-28T02:18:53.052Z,24.69
2015-12-28T02:19:05.396Z,24.69
2015-12-28T02:19:17.755Z,24.6
2015-12-28T02:19:30.115Z,24.5
2015-12-28T02:19:42.477Z,24.5
2015-12-28T02:19:54.821Z,24.6
2015-12-28T02:20:07.180Z,24.69
2015-12-28T02:20:19.539Z,24.69
2015-12-28T02:20:31.899Z,24.6
2015-12-28T02:20:44.260Z,24.6
2015-12-28T02:20:56.604Z,24.5
2015-12-28T02:21:08.963Z,24.12
2015-12-28T02:21:21.338Z,24.31
2015-12-28T02:21:33.716Z,24.5
2015-12-28T02:21:46.076Z,24.12
2015-12-28T02:21:58.451Z,24.31
2015-12-28T02:22:10.826Z,24.41
2015-12-28T02:22:23.216Z,24.22
2015-12-28T02:22:34.891Z,24.31
2015-12-28T02:22:47.282Z,24.31
2015-12-28T02:22:59.688Z,24.5
2015-12-28T02:23:12.063Z,24.22
2015-12-28T02:23:24.438Z,24.31
2015-12-28T02:23:36.815Z,24.22
2015-12-28T02:23:49.174Z,24.22
2015-12-28T02:24:01.534Z,24.31
2015-12-28T02:24:13.878Z,24.22
2015-12-28T02:24:26.237Z,24.22
2015-12-28T02:24:38.615Z,24.41
2015-12-28T02:24:50.959Z,24.5
2015-12-28T02:25:03.318Z,24.41
2015-12-28T02:25:15.677Z,24.12
2015-12-28T02:25:28.052Z,24.41
2015-12-28T02:25:40.415Z,24.22
2015-12-28T02:25:52.759Z,24.5
2015-12-28T02:26:05.118Z,24.5
2015-12-28T02:26:17.509Z,24.69
2015-12-28T02:26:29.868Z,24.69
2015-12-28T02:26:42.246Z,24.69
2015-12-28T02:26:54.605Z,24.79
2015-12-28T02:27:06.996Z,24.6
2015-12-28T02:27:19.387Z,24.69
2015-12-28T02:27:31.762Z,24.79
2015-12-28T02:27:44.154Z,24.6
2015-12-28T02:27:56.545Z,24.69
2015-12-28T02:28:08.935Z,24.6
2015-12-28T02:28:20.592Z,24.5
2015-12-28T02:28:32.967Z,24.6
2015-12-28T02:28:45.313Z,24.6
2015-12-28T02:28:57.673Z,24.79
2015-12-28T02:29:10.017Z,24.6
2015-12-28T02:29:22.376Z,24.6
2015-12-28T02:29:34.579Z,24.6
2015-12-28T02:29:46.926Z,24.5
2015-12-28T02:29:59.129Z,24.41
2015-12-28T02:30:10.774Z,24.88
2015-12-28T02:30:23.134Z,24.88
2015-12-28T02:30:35.493Z,24.88
2015-12-28T02:30:47.855Z,25.07
2015-12-28T02:31:00.198Z,24.88
2015-12-28T02:31:12.573Z,24.88
2015-12-28T02:31:24.933Z,24.79
2015-12-28T02:31:37.308Z,25.07
2015-12-28T02:31:49.670Z,24.88
2015-12-28T02:32:02.076Z,24.88
2015-12-28T02:32:14.467Z,24.88
2015-12-28T02:32:26.842Z,25.16
2015-12-28T02:32:39.233Z,24.88
2015-12-28T02:32:51.642Z,25.07
2015-12-28T02:33:04.017Z,25.07
2015-12-28T02:33:16.392Z,24.79
2015-12-28T02:33:28.751Z,24.98
2015-12-28T02:33:41.095Z,24.88
2015-12-28T02:33:53.457Z,24.98
2015-12-28T02:34:05.801Z,24.98
2015-12-28T02:34:18.160Z,24.98
2015-12-28T02:34:30.504Z,25.07
2015-12-28T02:34:42.848Z,25.07
2015-12-28T02:34:55.195Z,24.88
2015-12-28T02:35:07.570Z,24.79
2015-12-28T02:35:19.929Z,24.88
2015-12-28T02:35:32.288Z,24.5
2015-12-28T02:35:44.632Z,24.41
2015-12-28T02:35:57.009Z,24.6
2015-12-28T02:36:09.384Z,24.41
2015-12-28T02:36:21.759Z,24.69
2015-12-28T02:36:33.415Z,24.69
2015-12-28T02:36:45.806Z,24.6
2015-12-28T02:36:58.200Z,24.69
2015-12-28T02:37:10.575Z,24.69
2015-12-28T02:37:22.965Z,24.69
2015-12-28T02:37:35.356Z,24.79
2015-12-28T02:37:47.747Z,24.5
2015-12-28T02:38:00.125Z,24.41
2015-12-28T02:38:12.531Z,24.41
2015-12-28T02:38:24.875Z,24.5
2015-12-28T02:38:37.234Z,24.5
2015-12-28T02:38:49.578Z,24.5
2015-12-28T02:39:01.940Z,24.79
2015-12-28T02:39:14.299Z,24.5
2015-12-28T02:39:26.659Z,24.69
2015-12-28T02:39:39.003Z,24.69
2015-12-28T02:39:51.362Z,24.6
2015-12-28T02:40:03.723Z,24.5